Time;durP1;ratioP1;P1;durP2;ratioP2;P2;SDS_P1;SDS_P2;PMS_P1;PMS_P2;Temp;Humidity;BMP_temperature;BMP_pressure;BME280_temperature;BME280_humidity;BME280_pressure;Samples;Min_cycle;Max_cycle;Signal;HPM_P1;HPM_P2
2021/01/22 00:00:13;;;;;;;6.07;3.92;;;7.70;99.90;;;;;;5033248;28;20425;-46
2021/01/22 00:02:39;;;;;;;5.43;3.33;;;7.70;99.90;;;;;;5032490;28;20063;-46
2021/01/22 00:05:05;;;;;;;6.25;3.33;;;7.70;99.90;;;;;;5033521;28;20053;-48
2021/01/22 00:07:30;;;;;;;4.32;3.28;;;7.70;99.90;;;;;;5033639;28;20477;-48
2021/01/22 00:09:56;;;;;;;6.18;4.05;;;7.70;99.90;;;;;;5033551;28;20033;-48
2021/01/22 00:12:21;;;;;;;7.57;4.00;;;7.70;99.90;;;;;;5033487;28;20473;-45
2021/01/22 00:14:47;;;;;;;7.03;4.03;;;7.70;99.90;;;;;;5033435;28;20056;-48
2021/01/22 00:17:13;;;;;;;6.22;3.67;;;7.80;99.90;;;;;;5032425;28;20045;-45
2021/01/22 00:19:39;;;;;;;8.52;4.43;;;7.80;99.90;;;;;;5033314;28;20052;-45
2021/01/22 00:22:04;;;;;;;6.57;3.88;;;7.90;99.90;;;;;;5033282;28;20434;-44
2021/01/22 00:24:29;;;;;;;8.13;4.35;;;7.90;99.50;;;;;;5033273;28;20473;-48
2021/01/22 00:26:55;;;;;;;19.98;4.93;;;8.00;97.70;;;;;;5033176;28;20033;-45
2021/01/22 00:29:20;;;;;;;8.02;4.35;;;8.00;97.50;;;;;;5033239;28;20025;-47
2021/01/22 00:31:46;;;;;;;9.75;5.07;;;8.10;96.80;;;;;;5032317;28;20026;-47
2021/01/22 00:34:11;;;;;;;7.95;5.10;;;8.20;96.00;;;;;;5032846;28;20025;-49
2021/01/22 00:36:37;;;;;;;6.75;3.70;;;8.30;95.20;;;;;;5033263;28;20033;-47
2021/01/22 00:39:03;;;;;;;7.03;4.32;;;8.30;95.00;;;;;;5032892;28;20026;-49
2021/01/22 00:41:29;;;;;;;8.13;3.70;;;8.40;94.40;;;;;;5032862;28;20032;-46
2021/01/22 00:43:54;;;;;;;7.65;4.28;;;8.40;94.40;;;;;;5033161;28;20048;-47
2021/01/22 00:46:20;;;;;;;9.82;4.32;;;8.50;93.70;;;;;;5032830;28;20072;-43
2021/01/22 00:48:45;;;;;;;8.77;4.05;;;8.50;93.60;;;;;;5032029;28;20025;-46
2021/01/22 00:51:11;;;;;;;8.57;4.75;;;8.50;93.10;;;;;;5032541;28;20045;-46
2021/01/22 00:53:39;;;;;;;6.57;4.13;;;8.60;92.90;;;;;;5032701;28;20128;-44
2021/01/22 00:56:04;;;;;;;8.32;4.43;;;8.50;92.80;;;;;;5032567;28;20029;-43
2021/01/22 00:58:30;;;;;;;7.43;4.10;;;8.50;93.10;;;;;;5032590;28;20021;-46
2021/01/22 01:00:55;;;;;;;9.88;4.70;;;8.50;92.90;;;;;;5032478;28;20033;-46
2021/01/22 01:03:21;;;;;;;8.27;4.65;;;8.50;93.10;;;;;;5031576;28;20084;-44
2021/01/22 01:05:46;;;;;;;7.68;4.03;;;8.60;92.70;;;;;;5032528;28;20532;-44
2021/01/22 01:08:12;;;;;;;5.72;3.75;;;8.60;92.90;;;;;;5032507;28;20030;-46
2021/01/22 01:10:38;;;;;;;5.45;3.72;;;8.60;93.00;;;;;;5032415;28;20033;-47
2021/01/22 01:13:03;;;;;;;5.63;3.42;;;8.60;92.90;;;;;;5031223;28;20156;-46
2021/01/22 01:15:29;;;;;;;5.47;3.45;;;8.60;92.80;;;;;;5032343;28;20470;-47
2021/01/22 01:17:54;;;;;;;5.82;3.63;;;8.70;92.80;;;;;;5031441;28;20018;-45
2021/01/22 01:20:19;;;;;;;5.40;3.40;;;8.70;92.90;;;;;;5032100;28;20037;-45
2021/01/22 01:22:45;;;;;;;6.85;3.83;;;8.70;92.90;;;;;;5032418;28;20500;-45
2021/01/22 01:25:11;;;;;;;5.93;3.40;;;8.70;92.70;;;;;;5032037;28;20031;-43
2021/01/22 01:27:36;;;;;;;6.20;3.42;;;8.80;92.80;;;;;;5032224;28;20033;-48
2021/01/22 01:30:04;;;;;;;5.00;2.90;;;8.80;92.60;;;;;;5031953;28;20481;-45
2021/01/22 01:32:29;;;;;;;5.75;3.13;;;8.90;92.70;;;;;;5031012;28;20022;-42
2021/01/22 01:34:54;;;;;;;4.80;2.58;;;8.90;92.90;;;;;;5032013;28;20117;-43
2021/01/22 01:37:20;;;;;;;4.05;2.50;;;8.90;92.90;;;;;;5031948;28;20041;-47
2021/01/22 01:39:45;;;;;;;2.65;1.88;;;8.90;93.00;;;;;;5031975;28;20083;-43
2021/01/22 01:42:11;;;;;;;3.00;2.47;;;9.00;93.00;;;;;;5031730;28;20029;-43
2021/01/22 01:44:37;;;;;;;4.70;2.53;;;9.10;93.00;;;;;;5031797;28;20029;-46
2021/01/22 01:47:02;;;;;;;3.05;1.90;;;9.10;93.10;;;;;;5030845;28;20397;-43
2021/01/22 01:49:28;;;;;;;4.90;2.25;;;9.20;93.20;;;;;;5031836;28;20056;-45
2021/01/22 01:51:54;;;;;;;2.13;1.55;;;9.20;93.30;;;;;;5031621;28;20021;-45
2021/01/22 01:54:21;;;;;;;2.38;1.60;;;9.30;93.40;;;;;;5029246;28;20044;-45
2021/01/22 01:56:46;;;;;;;2.53;1.40;;;9.30;93.50;;;;;;5031268;28;20393;-47
2021/01/22 01:59:14;;;;;;;2.25;1.70;;;9.30;93.50;;;;;;5031363;28;20032;-45
2021/01/22 02:01:40;;;;;;;3.63;1.48;;;9.30;93.50;;;;;;5030543;28;20026;-45
2021/01/22 02:04:06;;;;;;;2.70;1.42;;;9.40;93.80;;;;;;5031502;28;20064;-46
2021/01/22 02:06:31;;;;;;;3.60;1.40;;;9.40;93.50;;;;;;5031662;28;20416;-43
2021/01/22 02:08:57;;;;;;;1.73;1.10;;;9.40;93.50;;;;;;5031680;28;20026;-44
2021/01/22 02:11:25;;;;;;;2.00;1.15;;;9.50;93.40;;;;;;5031458;28;20033;-45
2021/01/22 02:13:51;;;;;;;2.15;0.98;;;9.50;93.40;;;;;;5031421;28;20026;-45
2021/01/22 02:16:17;;;;;;;2.22;1.00;;;9.50;93.50;;;;;;5031414;28;20104;-46
2021/01/22 02:18:44;;;;;;;3.15;0.82;;;9.50;93.70;;;;;;5031538;28;20272;-47
2021/01/22 02:21:30;;;;;;;0.43;0.43;;;9.60;93.60;;;;;;5032052;28;20487;-43
2021/01/22 02:24:00;;;;;;;0.80;0.70;;;9.70;93.40;;;;;;5033119;28;20076;-44
2021/01/22 02:26:37;;;;;;;1.02;0.82;;;9.90;92.90;;;;;;5036381;28;20025;-47
2021/01/22 02:29:06;;;;;;;1.15;0.45;;;10.00;92.50;;;;;;5036344;28;20030;-46
2021/01/22 02:31:35;;;;;;;0.65;0.50;;;10.10;92.30;;;;;;5035832;28;20346;-44
2021/01/22 02:34:05;;;;;;;0.98;0.50;;;10.20;91.80;;;;;;5036329;28;20356;-43
2021/01/22 02:36:40;;;;;;;3.83;0.60;;;10.30;91.40;;;;;;5036117;28;20026;-46
2021/01/22 02:39:09;;;;;;;0.40;0.40;;;10.40;91.00;;;;;;5036268;28;20112;-47
2021/01/22 02:41:37;;;;;;;1.10;0.50;;;10.40;91.00;;;;;;5036175;28;20406;-46
2021/01/22 02:44:04;;;;;;;0.40;0.40;;;10.40;91.00;;;;;;5036219;28;20033;-46
2021/01/22 02:46:31;;;;;;;1.27;0.50;;;10.30;91.00;;;;;;5035529;28;20029;-45
2021/01/22 02:48:58;;;;;;;1.55;0.43;;;10.30;90.80;;;;;;5035917;28;20076;-49
2021/01/22 02:51:24;;;;;;;0.90;0.60;;;10.30;90.40;;;;;;5038887;28;20047;-46
2021/01/22 02:53:50;;;;;;;1.90;0.60;;;10.40;90.40;;;;;;5035665;28;20527;-45
2021/01/22 02:56:43;;;;;;;0.43;0.38;;;10.40;90.00;;;;;;5035797;28;20100;-45
2021/01/22 02:59:11;;;;;;;1.45;0.52;;;10.40;89.90;;;;;;5035857;28;20026;-47
2021/01/22 03:02:02;;;;;;;0.47;0.40;;;10.40;89.70;;;;;;5034643;28;20024;-44
2021/01/22 03:04:28;;;;;;;1.60;0.50;;;10.40;90.20;;;;;;5035649;28;20025;-50
2021/01/22 03:06:57;;;;;;;0.50;0.47;;;10.40;89.70;;;;;;5035726;28;20032;-45
2021/01/22 03:09:25;;;;;;;2.47;0.40;;;10.30;89.20;;;;;;5035707;28;20029;-47
2021/01/22 03:11:51;;;;;;;1.33;0.77;;;10.40;88.50;;;;;;5035628;28;20021;-45
2021/01/22 03:14:19;;;;;;;1.17;0.50;;;10.30;89.00;;;;;;5035449;28;20033;-45
2021/01/22 03:16:45;;;;;;;0.80;0.55;;;10.20;89.60;;;;;;5034347;28;20022;-45
2021/01/22 03:19:11;;;;;;;0.32;0.32;;;10.20;89.10;;;;;;5034228;28;20534;-44
2021/01/22 03:21:36;;;;;;;0.47;0.47;;;10.30;88.80;;;;;;5035428;28;20057;-47
2021/01/22 03:24:02;;;;;;;0.60;0.35;;;10.30;88.60;;;;;;5035505;28;20656;-45
2021/01/22 03:26:28;;;;;;;0.30;0.30;;;10.20;88.30;;;;;;5035259;28;20029;-47
2021/01/22 03:28:53;;;;;;;0.93;0.50;;;10.30;88.00;;;;;;5034138;28;20033;-45
2021/01/22 03:31:19;;;;;;;1.40;0.50;;;10.20;88.10;;;;;;5034966;28;20033;-45
2021/01/22 03:33:45;;;;;;;0.55;0.38;;;10.20;88.10;;;;;;5034417;28;20424;-48
2021/01/22 03:36:11;;;;;;;0.60;0.50;;;10.20;87.50;;;;;;5034059;28;20034;-45
2021/01/22 03:38:36;;;;;;;1.63;0.68;;;10.30;87.10;;;;;;5035110;28;20059;-43
2021/01/22 03:41:02;;;;;;;0.88;0.55;;;10.30;86.80;;;;;;5035088;28;20026;-44
2021/01/22 03:43:28;;;;;;;1.80;0.70;;;10.30;86.20;;;;;;5035060;28;20030;-45
2021/01/22 03:45:53;;;;;;;1.42;0.50;;;10.30;86.10;;;;;;5034822;28;20252;-46
2021/01/22 03:48:19;;;;;;;0.57;0.30;;;10.40;85.70;;;;;;5034044;28;20037;-46
2021/01/22 03:50:44;;;;;;;0.45;0.43;;;10.30;85.90;;;;;;5038039;28;20452;-45
2021/01/22 03:53:10;;;;;;;0.57;0.40;;;10.10;86.60;;;;;;5034876;28;20037;-45
2021/01/22 03:55:36;;;;;;;0.40;0.40;;;10.00;87.10;;;;;;5034687;28;20080;-45
2021/01/22 03:58:03;;;;;;;0.32;0.30;;;9.90;87.20;;;;;;5034935;28;20025;-43
2021/01/22 04:00:29;;;;;;;0.77;0.30;;;9.90;87.50;;;;;;5034518;28;20021;-45
2021/01/22 04:02:54;;;;;;;2.67;1.33;;;9.90;87.80;;;;;;5033683;28;20044;-45
2021/01/22 04:05:20;;;;;;;0.90;0.60;;;9.80;88.00;;;;;;5034612;28;20461;-43
2021/01/22 04:07:45;;;;;;;4.00;1.55;;;9.80;88.20;;;;;;5034627;28;20041;-46
2021/01/22 04:10:11;;;;;;;2.72;1.30;;;9.70;88.80;;;;;;5034668;28;20029;-45
2021/01/22 04:12:37;;;;;;;2.47;1.30;;;9.60;89.20;;;;;;5034380;28;20040;-47
2021/01/22 04:15:04;;;;;;;2.40;1.33;;;9.40;89.60;;;;;;5034342;28;20135;-44
2021/01/22 04:17:29;;;;;;;2.58;1.02;;;9.30;90.10;;;;;;5031858;28;20029;-45
2021/01/22 04:19:55;;;;;;;2.53;1.80;;;9.20;90.20;;;;;;5034500;28;20036;-45
2021/01/22 04:22:20;;;;;;;3.42;1.70;;;9.20;90.20;;;;;;5034298;28;20638;-45
2021/01/22 04:24:46;;;;;;;3.38;1.92;;;9.10;90.20;;;;;;5034375;28;20021;-48
2021/01/22 04:27:11;;;;;;;2.83;1.85;;;9.00;90.30;;;;;;5034212;28;20444;-46
2021/01/22 04:29:37;;;;;;;2.47;1.60;;;8.80;90.50;;;;;;5034143;28;20041;-44
2021/01/22 04:32:03;;;;;;;3.25;1.90;;;8.80;90.60;;;;;;5033048;28;20033;-45
2021/01/22 04:34:29;;;;;;;3.22;1.75;;;8.70;90.60;;;;;;5032727;28;20082;-46
2021/01/22 04:36:54;;;;;;;5.07;2.05;;;8.60;90.60;;;;;;5034038;28;20030;-44
2021/01/22 04:39:20;;;;;;;4.72;2.20;;;8.60;90.60;;;;;;5033926;28;20424;-47
2021/01/22 04:41:46;;;;;;;3.72;1.75;;;8.60;90.40;;;;;;5033948;28;20058;-43
2021/01/22 04:44:11;;;;;;;3.13;1.92;;;8.50;90.40;;;;;;5033945;28;20078;-49
2021/01/22 04:46:37;;;;;;;4.30;2.35;;;8.60;90.20;;;;;;5032460;28;20476;-48
2021/01/22 04:49:06;;;;;;;3.08;2.30;;;8.50;90.20;;;;;;5033880;28;20036;-47
2021/01/22 04:51:36;;;;;;;2.67;1.98;;;8.50;90.20;;;;;;5036640;28;20037;-47
2021/01/22 04:54:09;;;;;;;3.50;2.13;;;8.40;90.30;;;;;;5033593;28;20557;-46
2021/01/22 04:56:45;;;;;;;3.28;2.03;;;8.30;90.10;;;;;;5033707;28;20083;-45
2021/01/22 04:59:19;;;;;;;4.60;2.40;;;8.30;90.00;;;;;;5033788;28;20395;-43
2021/01/22 05:01:46;;;;;;;3.58;2.13;;;8.30;90.10;;;;;;5032682;28;20026;-46
2021/01/22 05:04:13;;;;;;;5.28;2.90;;;8.10;90.40;;;;;;5033475;28;20104;-47
2021/01/22 05:06:39;;;;;;;6.60;2.85;;;8.10;90.00;;;;;;5033460;28;20399;-49
2021/01/22 05:09:05;;;;;;;5.60;3.17;;;8.10;89.90;;;;;;5033600;28;20173;-45
2021/01/22 05:11:30;;;;;;;4.72;3.25;;;8.00;89.70;;;;;;5033172;28;20496;-47
2021/01/22 05:13:57;;;;;;;10.98;3.75;;;7.90;90.00;;;;;;5033405;28;20389;-47
2021/01/22 05:16:23;;;;;;;5.75;3.65;;;7.90;89.60;;;;;;5033222;28;20096;-46
2021/01/22 05:18:49;;;;;;;6.35;3.45;;;7.90;88.90;;;;;;5032499;28;20105;-46
2021/01/22 05:21:15;;;;;;;9.45;4.07;;;7.90;88.60;;;;;;5033158;28;20053;-47
2021/01/22 05:23:42;;;;;;;7.93;4.28;;;7.80;88.70;;;;;;5033108;28;20383;-50
2021/01/22 05:26:13;;;;;;;7.93;3.88;;;7.80;88.80;;;;;;5033007;28;20030;-48
2021/01/22 05:28:39;;;;;;;7.32;3.90;;;7.70;88.80;;;;;;5033142;28;20117;-44
2021/01/22 05:31:09;;;;;;;6.18;3.50;;;7.60;89.20;;;;;;5033026;28;20548;-47
2021/01/22 05:33:36;;;;;;;7.47;4.28;;;7.50;88.60;;;;;;5031858;28;20037;-44
2021/01/22 05:36:22;;;;;;;7.55;4.30;;;7.60;88.10;;;;;;5032929;28;20033;-45
2021/01/22 05:38:47;;;;;;;8.43;4.63;;;7.40;88.20;;;;;;5032917;28;20389;-46
2021/01/22 05:41:13;;;;;;;6.10;3.90;;;7.40;88.40;;;;;;5032888;28;20071;-45
2021/01/22 05:43:40;;;;;;;7.28;4.45;;;7.30;88.30;;;;;;5032780;28;20360;-45
2021/01/22 05:46:13;;;;;;;9.63;4.85;;;7.20;88.50;;;;;;5032775;28;20052;-45
2021/01/22 05:48:39;;;;;;;8.77;4.80;;;7.20;88.90;;;;;;5031726;28;20409;-47
2021/01/22 05:51:05;;;;;;;9.43;5.03;;;7.10;88.80;;;;;;5035559;28;20029;-46
2021/01/22 05:53:31;;;;;;;8.80;3.80;;;7.20;88.30;;;;;;5032380;28;20050;-49
2021/01/22 05:56:11;;;;;;;6.50;3.67;;;7.20;88.20;;;;;;5027758;28;20033;-48
2021/01/22 05:58:41;;;;;;;11.25;4.80;;;7.00;88.60;;;;;;5051350;28;20100;-48
2021/01/22 06:01:15;;;;;;;7.32;4.70;;;7.00;88.60;;;;;;5052375;28;20517;-44
2021/01/22 06:03:44;;;;;;;8.95;4.38;;;7.00;88.70;;;;;;5051087;28;20043;-43
2021/01/22 06:06:10;;;;;;;11.15;5.47;;;7.00;88.50;;;;;;5052393;28;20028;-43
2021/01/22 06:08:59;;;;;;;7.43;4.20;;;7.00;88.70;;;;;;5052178;28;20029;-43
2021/01/22 06:11:30;;;;;;;9.15;4.50;;;7.00;88.60;;;;;;5052196;28;20457;-44
2021/01/22 06:14:03;;;;;;;6.85;3.83;;;6.90;88.70;;;;;;5051956;28;20025;-46
2021/01/22 06:16:29;;;;;;;7.50;4.03;;;6.90;88.60;;;;;;5051216;28;20128;-43
2021/01/22 06:18:59;;;;;;;6.68;4.13;;;7.00;88.40;;;;;;5052060;28;20528;-46
2021/01/22 06:21:33;;;;;;;8.10;4.45;;;7.00;88.40;;;;;;5052134;28;20021;-45
2021/01/22 06:24:01;;;;;;;6.05;3.30;;;7.00;88.50;;;;;;5052256;28;20378;-47
2021/01/22 06:26:28;;;;;;;7.32;3.88;;;6.90;88.50;;;;;;5051902;28;20590;-46
2021/01/22 06:28:56;;;;;;;7.63;4.00;;;6.80;88.90;;;;;;5052126;28;20119;-46
2021/01/22 06:31:21;;;;;;;5.53;3.28;;;6.90;89.10;;;;;;5052085;28;20400;-46
2021/01/22 06:33:48;;;;;;;7.60;3.85;;;6.90;88.80;;;;;;5051174;28;20041;-46
2021/01/22 06:36:14;;;;;;;6.32;3.75;;;6.90;88.80;;;;;;5052013;28;20037;-45
2021/01/22 06:38:41;;;;;;;5.70;3.50;;;6.90;89.10;;;;;;5052082;28;20381;-46
2021/01/22 06:41:08;;;;;;;5.03;3.33;;;6.90;89.20;;;;;;5052126;28;20480;-45
2021/01/22 06:43:35;;;;;;;5.60;3.35;;;6.90;89.40;;;;;;5052052;28;20017;-44
2021/01/22 06:46:04;;;;;;;5.05;2.97;;;6.80;89.80;;;;;;5052201;28;20100;-45
2021/01/22 06:48:55;;;;;;;6.28;3.65;;;6.80;90.30;;;;;;5051007;28;20033;-44
2021/01/22 06:51:22;;;;;;;7.53;3.67;;;6.70;90.30;;;;;;5039141;28;20508;-45
2021/01/22 06:54:11;;;;;;;4.65;2.92;;;6.80;90.20;;;;;;5031603;28;20053;-49
2021/01/22 06:57:03;;;;;;;5.32;3.05;;;6.70;90.30;;;;;;5031946;28;20029;-44
2021/01/22 06:59:35;;;;;;;6.93;3.47;;;6.80;90.40;;;;;;5023880;28;20038;-44
2021/01/22 07:02:02;;;;;;;7.38;2.92;;;6.90;90.20;;;;;;5030968;28;20029;-46
2021/01/22 07:04:33;;;;;;;4.60;2.67;;;7.00;90.00;;;;;;5032122;28;20063;-47
2021/01/22 07:07:06;;;;;;;3.78;2.70;;;7.20;89.80;;;;;;5029370;28;20752;-42
2021/01/22 07:09:40;;;;;;;6.85;2.85;;;7.30;89.30;;;;;;5032132;28;20033;-45
2021/01/22 07:12:11;;;;;;;6.38;3.30;;;7.40;88.60;;;;;;5035594;28;20025;-48
2021/01/22 07:14:47;;;;;;;6.05;3.10;;;7.60;87.80;;;;;;5035385;28;20207;-46
2021/01/22 07:17:27;;;;;;;4.68;2.90;;;7.60;87.80;;;;;;5034636;28;20067;-43
2021/01/22 07:20:09;;;;;;;6.72;3.25;;;7.60;88.20;;;;;;5029649;28;20461;-46
2021/01/22 07:22:49;;;;;;;5.93;2.70;;;7.60;88.50;;;;;;5014762;28;20113;-45
2021/01/22 07:25:27;;;;;;;5.22;2.88;;;7.60;88.50;;;;;;5015119;28;20101;-45
2021/01/22 07:27:53;;;;;;;3.35;2.10;;;7.60;88.30;;;;;;5015198;28;20479;-43
2021/01/22 07:30:20;;;;;;;6.88;2.95;;;7.60;88.50;;;;;;5015215;28;20101;-44
2021/01/22 07:32:49;;;;;;;3.80;2.20;;;7.60;88.70;;;;;;5014117;28;20026;-43
2021/01/22 07:35:23;;;;;;;5.38;2.60;;;7.70;88.40;;;;;;5014940;28;20037;-49
2021/01/22 07:37:49;;;;;;;3.42;2.25;;;7.70;88.50;;;;;;5014997;28;20112;-45
2021/01/22 07:40:15;;;;;;;4.78;2.25;;;7.80;88.40;;;;;;5015381;28;20025;-45
2021/01/22 07:42:42;;;;;;;4.53;1.80;;;7.80;88.70;;;;;;5014962;28;20025;-44
2021/01/22 07:45:13;;;;;;;4.93;2.63;;;7.90;88.60;;;;;;5015199;28;20070;-45
2021/01/22 07:47:40;;;;;;;6.40;2.05;;;8.00;88.40;;;;;;5014220;28;20030;-48
2021/01/22 07:50:17;;;;;;;3.90;2.42;;;8.20;87.70;;;;;;5017462;28;20041;-43
2021/01/22 07:52:44;;;;;;;3.30;1.90;;;8.40;87.00;;;;;;5033976;28;20516;-46
2021/01/22 07:55:23;;;;;;;5.07;2.22;;;8.50;86.60;;;;;;5034560;28;20489;-44
2021/01/22 07:58:02;;;;;;;3.08;2.08;;;8.70;86.20;;;;;;5034459;28;20021;-45
2021/01/22 08:00:37;;;;;;;5.32;2.30;;;8.80;85.60;;;;;;5034374;28;20045;-47
2021/01/22 08:03:03;;;;;;;4.90;2.28;;;8.80;85.90;;;;;;5033535;28;20029;-43
2021/01/22 08:05:33;;;;;;;4.07;2.00;;;8.80;86.00;;;;;;5034519;28;20033;-43
2021/01/22 08:08:00;;;;;;;5.28;2.03;;;8.80;86.20;;;;;;5034462;28;20033;-47
2021/01/22 08:10:30;;;;;;;3.75;2.05;;;9.00;85.40;;;;;;5034378;28;20072;-41
2021/01/22 08:13:00;;;;;;;3.15;1.83;;;9.20;85.20;;;;;;5034087;28;20432;-49
2021/01/22 08:15:27;;;;;;;2.03;1.45;;;9.30;85.10;;;;;;5034370;28;20029;-44
2021/01/22 08:17:54;;;;;;;3.90;1.70;;;9.40;84.70;;;;;;5033237;28;20014;-42
2021/01/22 08:20:21;;;;;;;3.15;2.08;;;9.50;83.70;;;;;;5034077;28;20025;-43
2021/01/22 08:22:57;;;;;;;2.22;1.75;;;9.60;83.50;;;;;;5031974;28;20025;-41
2021/01/22 08:25:38;;;;;;;3.53;2.17;;;9.70;83.30;;;;;;5034155;28;20026;-43
2021/01/22 08:28:08;;;;;;;3.83;2.10;;;9.70;82.70;;;;;;5034041;28;20029;-43
2021/01/22 08:30:36;;;;;;;2.40;1.70;;;9.80;82.80;;;;;;5034137;28;20492;-44
2021/01/22 08:33:03;;;;;;;2.80;1.52;;;9.80;83.10;;;;;;5033008;28;20035;-47
2021/01/22 08:35:30;;;;;;;2.42;1.70;;;9.80;83.00;;;;;;5034243;28;20024;-43
2021/01/22 08:37:56;;;;;;;3.90;1.90;;;9.80;82.80;;;;;;5033534;28;20469;-44
2021/01/22 08:40:35;;;;;;;3.03;2.25;;;9.80;82.70;;;;;;5033931;28;20416;-45
2021/01/22 08:43:03;;;;;;;5.03;1.90;;;9.80;82.60;;;;;;5033563;28;20064;-44
2021/01/22 08:45:28;;;;;;;4.20;1.90;;;9.80;83.10;;;;;;5033772;28;20318;-45
2021/01/22 08:47:54;;;;;;;3.13;1.63;;;9.80;82.90;;;;;;5032672;28;20037;-43
2021/01/22 08:50:21;;;;;;;1.48;1.35;;;9.80;83.10;;;;;;5033801;28;20321;-46
2021/01/22 08:53:02;;;;;;;2.03;1.45;;;9.80;83.40;;;;;;5033038;28;20188;-45
2021/01/22 08:55:27;;;;;;;2.63;1.30;;;9.90;83.70;;;;;;5033569;28;20499;-44
2021/01/22 08:58:04;;;;;;;2.78;1.45;;;9.90;83.80;;;;;;5033443;28;20116;-43
2021/01/22 09:00:31;;;;;;;1.75;1.30;;;9.90;83.50;;;;;;5033506;28;20121;-47
2021/01/22 09:02:57;;;;;;;4.32;1.85;;;9.90;83.80;;;;;;5032236;28;20467;-44
2021/01/22 09:05:25;;;;;;;2.40;1.30;;;10.00;83.40;;;;;;5033694;28;20014;-44
2021/01/22 09:08:12;;;;;;;2.22;1.38;;;10.10;83.50;;;;;;5033264;28;20026;-47
2021/01/22 09:10:49;;;;;;;2.60;1.45;;;10.10;83.40;;;;;;5033510;28;20026;-43
2021/01/22 09:13:20;;;;;;;2.50;1.20;;;10.20;83.40;;;;;;5033348;28;20021;-45
2021/01/22 09:15:46;;;;;;;2.17;1.15;;;10.20;83.50;;;;;;5033168;28;20017;-44
2021/01/22 09:18:19;;;;;;;2.25;1.15;;;10.20;84.50;;;;;;5032334;28;20032;-44
2021/01/22 09:20:55;;;;;;;3.17;1.20;;;10.20;84.30;;;;;;5033289;28;20014;-44
2021/01/22 09:23:21;;;;;;;2.00;1.00;;;10.20;84.70;;;;;;5030987;28;20048;-46
2021/01/22 09:25:46;;;;;;;1.35;0.80;;;10.30;85.00;;;;;;5052620;28;20105;-42
2021/01/22 09:28:12;;;;;;;0.75;0.50;;;10.20;86.30;;;;;;5052713;28;20031;-44
2021/01/22 09:30:37;;;;;;;1.25;0.30;;;10.10;88.40;;;;;;5068378;28;20380;-44
2021/01/22 09:33:03;;;;;;;0.38;0.30;;;9.90;89.60;;;;;;5051225;28;20052;-46
2021/01/22 09:35:29;;;;;;;0.20;0.20;;;9.70;90.20;;;;;;5052385;28;20029;-45
2021/01/22 09:37:56;;;;;;;0.65;0.20;;;9.50;90.70;;;;;;5052642;28;20052;-45
2021/01/22 09:40:22;;;;;;;0.28;0.20;;;9.40;91.10;;;;;;5052724;28;20357;-47
2021/01/22 09:42:48;;;;;;;0.45;0.35;;;9.30;91.50;;;;;;5052428;28;20087;-44
2021/01/22 09:45:15;;;;;;;0.50;0.30;;;9.20;91.80;;;;;;5048881;28;20052;-44
2021/01/22 09:47:40;;;;;;;0.40;0.30;;;9.10;92.10;;;;;;5026187;28;20357;-45
2021/01/22 09:50:08;;;;;;;0.20;0.20;;;9.10;92.30;;;;;;5022514;28;20032;-46
2021/01/22 09:52:36;;;;;;;0.47;0.30;;;9.00;92.40;;;;;;5031291;28;20116;-48
2021/01/22 09:55:03;;;;;;;0.35;0.20;;;9.00;92.60;;;;;;5025949;28;20034;-42
2021/01/22 09:57:29;;;;;;;0.25;0.22;;;8.90;92.70;;;;;;5031462;28;20021;-43
2021/01/22 09:59:55;;;;;;;0.85;0.30;;;8.90;92.80;;;;;;5031288;28;20067;-43
2021/01/22 10:02:21;;;;;;;0.35;0.30;;;8.80;93.10;;;;;;5029365;28;20021;-45
2021/01/22 10:04:47;;;;;;;0.30;0.30;;;8.80;93.40;;;;;;5019509;28;20120;-44
2021/01/22 10:07:12;;;;;;;0.43;0.43;;;8.80;93.30;;;;;;5014513;28;20030;-44
2021/01/22 10:09:38;;;;;;;0.52;0.30;;;8.80;93.40;;;;;;5021793;28;20072;-50
2021/01/22 10:12:06;;;;;;;0.40;0.38;;;8.80;93.40;;;;;;5030402;28;20037;-44
2021/01/22 10:14:32;;;;;;;0.57;0.38;;;8.70;93.50;;;;;;5013815;28;20104;-45
2021/01/22 10:16:57;;;;;;;0.82;0.40;;;8.70;93.90;;;;;;5010568;28;20562;-45
2021/01/22 10:19:23;;;;;;;0.68;0.50;;;8.70;93.70;;;;;;5023629;28;20029;-43
2021/01/22 10:21:48;;;;;;;0.32;0.30;;;8.70;93.90;;;;;;5029381;28;20458;-45
2021/01/22 10:24:14;;;;;;;1.25;0.40;;;8.70;94.00;;;;;;5019169;28;20030;-46
2021/01/22 10:26:39;;;;;;;0.52;0.40;;;8.70;94.20;;;;;;5019226;28;20417;-45
2021/01/22 10:29:05;;;;;;;3.45;0.65;;;8.70;94.20;;;;;;5023204;28;20484;-43
2021/01/22 10:31:31;;;;;;;0.65;0.40;;;8.80;94.30;;;;;;5029521;28;20029;-42
2021/01/22 10:33:56;;;;;;;0.95;0.47;;;8.80;94.40;;;;;;5030276;28;20044;-43
2021/01/22 10:36:22;;;;;;;0.63;0.55;;;8.80;94.40;;;;;;5031207;28;20147;-41
2021/01/22 10:38:47;;;;;;;1.73;0.73;;;8.90;94.40;;;;;;5031103;28;20108;-43
2021/01/22 10:41:13;;;;;;;1.38;0.55;;;8.90;94.60;;;;;;5030866;28;20029;-42
2021/01/22 10:43:38;;;;;;;1.58;0.85;;;9.00;94.80;;;;;;5031140;28;20021;-44
2021/01/22 10:46:04;;;;;;;0.40;0.30;;;9.00;94.70;;;;;;5033550;28;20021;-43
2021/01/22 10:48:30;;;;;;;1.42;0.43;;;9.10;94.60;;;;;;5034039;28;20029;-44
2021/01/22 10:50:55;;;;;;;0.93;0.45;;;9.10;94.80;;;;;;5034943;28;20468;-43
2021/01/22 10:53:22;;;;;;;0.80;0.38;;;9.20;94.80;;;;;;5035086;28;20056;-45
2021/01/22 10:55:47;;;;;;;1.13;0.50;;;9.30;94.50;;;;;;5033473;28;20057;-43
2021/01/22 10:58:13;;;;;;;0.82;0.60;;;9.40;94.20;;;;;;5035115;28;20104;-43
2021/01/22 11:00:39;;;;;;;0.70;0.40;;;9.50;94.00;;;;;;5035095;28;20040;-42
2021/01/22 11:03:05;;;;;;;1.38;0.57;;;9.70;93.60;;;;;;5033459;28;20365;-45
2021/01/22 11:05:31;;;;;;;1.05;0.70;;;9.70;93.20;;;;;;5034828;28;20181;-45
2021/01/22 11:07:57;;;;;;;1.92;0.40;;;9.80;92.90;;;;;;5035008;28;20366;-43
2021/01/22 11:10:24;;;;;;;0.20;0.20;;;9.80;92.80;;;;;;5034500;28;20037;-45
2021/01/22 11:12:49;;;;;;;0.50;0.30;;;9.80;92.60;;;;;;5034930;28;20022;-42
2021/01/22 11:15:15;;;;;;;0.65;0.40;;;9.90;92.50;;;;;;5034525;28;20120;-43
2021/01/22 11:17:41;;;;;;;0.40;0.40;;;9.80;92.20;;;;;;5033523;28;20029;-44
2021/01/22 11:20:07;;;;;;;1.35;0.40;;;9.90;91.90;;;;;;5033162;28;20055;-44
2021/01/22 11:22:33;;;;;;;0.38;0.30;;;9.90;91.70;;;;;;5034685;28;20030;-46
2021/01/22 11:24:59;;;;;;;1.08;0.40;;;9.90;91.70;;;;;;5034577;28;20071;-44
2021/01/22 11:27:25;;;;;;;1.15;0.30;;;10.00;91.30;;;;;;5034401;28;20029;-45
2021/01/22 11:29:51;;;;;;;0.50;0.50;;;10.00;91.00;;;;;;5034458;28;20025;-45
2021/01/22 11:32:17;;;;;;;0.60;0.20;;;10.00;90.70;;;;;;5033040;28;20373;-43
2021/01/22 11:34:43;;;;;;;2.40;0.32;;;10.00;90.70;;;;;;5041936;28;20029;-44
2021/01/22 11:37:08;;;;;;;0.30;0.20;;;9.90;90.40;;;;;;5034336;28;20420;-45
2021/01/22 11:39:36;;;;;;;1.60;0.30;;;9.90;90.50;;;;;;5039626;28;20056;-43
2021/01/22 11:42:07;;;;;;;0.80;0.30;;;9.90;90.40;;;;;;5038147;28;20022;-45
2021/01/22 11:44:32;;;;;;;0.30;0.22;;;9.90;90.30;;;;;;5037947;28;20480;-47
2021/01/22 11:46:58;;;;;;;0.75;0.30;;;9.80;90.00;;;;;;5033981;28;20057;-44
2021/01/22 11:49:24;;;;;;;0.77;0.70;;;9.80;89.60;;;;;;5033957;28;20033;-43
2021/01/22 11:51:50;;;;;;;0.70;0.60;;;9.70;88.40;;;;;;5034080;28;20029;-45
2021/01/22 11:54:16;;;;;;;0.50;0.30;;;9.60;88.40;;;;;;5033607;28;20081;-46
2021/01/22 11:56:42;;;;;;;3.60;0.68;;;9.50;87.40;;;;;;5032986;28;20053;-44
2021/01/22 11:59:08;;;;;;;0.25;0.20;;;9.50;88.00;;;;;;5033858;28;20029;-44
2021/01/22 12:01:34;;;;;;;1.05;0.30;;;9.40;87.40;;;;;;5032712;28;20033;-42
2021/01/22 12:04:00;;;;;;;0.38;0.38;;;9.40;87.10;;;;;;5033717;28;20492;-46
2021/01/22 12:06:25;;;;;;;2.22;0.63;;;9.50;87.30;;;;;;5033752;28;20173;-43
2021/01/22 12:08:51;;;;;;;0.38;0.38;;;9.50;86.70;;;;;;5033700;28;20048;-45
2021/01/22 12:11:17;;;;;;;0.50;0.38;;;9.60;86.30;;;;;;5033809;28;20067;-46
2021/01/22 12:13:42;;;;;;;1.23;0.30;;;9.70;85.40;;;;;;5033470;28;20029;-44
2021/01/22 12:16:08;;;;;;;0.68;0.30;;;9.70;85.00;;;;;;5033394;28;20026;-45
2021/01/22 12:18:33;;;;;;;0.32;0.30;;;9.70;85.40;;;;;;5032361;28;20075;-43
2021/01/22 12:20:59;;;;;;;0.98;0.50;;;9.80;85.40;;;;;;5033488;28;20036;-47
2021/01/22 12:23:24;;;;;;;0.75;0.43;;;9.80;85.00;;;;;;5033319;28;20361;-41
2021/01/22 12:25:50;;;;;;;0.55;0.30;;;9.90;84.60;;;;;;5033513;28;20036;-42
2021/01/22 12:28:16;;;;;;;0.75;0.40;;;9.90;84.70;;;;;;5033283;28;20520;-46
2021/01/22 12:30:42;;;;;;;0.65;0.40;;;9.90;84.60;;;;;;5033360;28;20492;-45
2021/01/22 12:33:08;;;;;;;0.30;0.20;;;9.90;84.20;;;;;;5032328;28;20071;-45
2021/01/22 12:35:33;;;;;;;0.32;0.20;;;9.90;84.20;;;;;;5033278;28;20488;-44
2021/01/22 12:37:59;;;;;;;0.20;0.20;;;9.90;83.30;;;;;;5033307;28;20476;-44
2021/01/22 12:40:25;;;;;;;0.65;0.25;;;10.00;83.00;;;;;;5032965;28;20030;-44
2021/01/22 12:42:50;;;;;;;1.20;0.35;;;10.00;82.90;;;;;;5033191;28;20017;-42
2021/01/22 12:45:18;;;;;;;0.43;0.30;;;10.00;82.90;;;;;;5032755;28;20511;-48
2021/01/22 12:47:44;;;;;;;0.45;0.25;;;10.00;82.70;;;;;;5027362;28;20121;-42
2021/01/22 12:50:10;;;;;;;0.75;0.30;;;10.00;83.20;;;;;;5021893;28;20129;-43
2021/01/22 12:52:35;;;;;;;0.20;0.20;;;9.90;83.20;;;;;;5021485;28;20091;-41
2021/01/22 12:55:01;;;;;;;0.43;0.28;;;9.90;83.50;;;;;;5048022;28;20033;-43
2021/01/22 12:57:26;;;;;;;0.40;0.40;;;9.90;83.40;;;;;;5032592;28;20029;-43